(°C)
15°
13°
12°
11°
10°
(°C)
13°
11°
S
SW
WSW
WSW
WSW
W
W
(km/h)
5-19
5-19
7-14
7-11
7-11
8-16
8-11
(mm)
0
0
0
0
0
0
0
(%)
0
0
0
0
0
0
0

Sun elevation

/ -17.3°
sun-icon
UV 9
05:46
20:35
Sierp ubywający (324°)
04:51
17:10

METAR for Innsbruck (LOWI)

Czas Conditions Temperatura/
Punkt rosy
Wiatr Widzialność Pogoda Chmury Ciśn. atm. Change Raw
VFR 15°C / 3°C 80º variable 050º to 120º 5kt >10km - Few Clouds 9000ft 1016 - LOWI 082020Z AUTO 08005KT 050V120 9999 FEW090 SCT100 15/03 Q1016
VFR 17°C / 2°C 90º variable 060º to 120º 6kt >10km - Overcast 9000ft 1016 - LOWI 081950Z AUTO 09006KT 060V120 9999 OVC090 17/02 Q1016
VFR 17°C / 2°C 80º variable 050º to 120º 6kt >10km - Few Clouds 9000ft 1016 - LOWI 081920Z AUTO 08006KT 050V120 9999 FEW090 OVC100 17/02 Q1016
VFR 18°C / 1°C 80º 8kt >10km - Broken Clouds 10000ft 1016 No Significant change LOWI 081850Z 08008KT 9999 BKN100 18/01 Q1016 NOSIG
VFR 18°C / 2°C 60º variable 040º to 100º 7kt >10km - Broken Clouds 10000ft 1015 No Significant change LOWI 081820Z 06007KT 040V100 9999 BKN100 18/02 Q1015 NOSIG
VFR 19°C / 0°C 60º 10kt >10km - Broken Clouds 11000ft 1015 No Significant change LOWI 081750Z 06010KT 9999 BKN110 19/M00 Q1015 NOSIG
VFR 20°C / -1°C 130º variable 090º to 170º 9kt >10km - Broken Clouds 11000ft 1015 No Significant change LOWI 081720Z 13009KT 090V170 9999 BKN110 20/M01 Q1015 NOSIG
VFR 20°C / -2°C 150º variable 110º to 190º 7kt >10km - Broken Clouds 11000ft 1014 No Significant change LOWI 081650Z 15007KT 110V190 9999 BKN110 20/M02 Q1014 NOSIG
VFR 21°C / -1°C 150º variable 120º to 190º 5kt >10km - Scattered Clouds 12000ft 1014 No Significant change LOWI 081620Z 15005KT 120V190 9999 SCT120 21/M01 Q1014 NOSIG
VFR 22°C / -2°C variable 2kt >10km - Clouds and Visibility OK 1014 No Significant change LOWI 081550Z VRB02KT CAVOK 22/M02 Q1014 NOSIG
VFR 22°C / 0°C variable 4kt >10km - Clouds and Visibility OK 1014 No Significant change LOWI 081520Z VRB04KT CAVOK 22/00 Q1014 NOSIG
VFR 21°C / -3°C 20º 4kt >10km - Clouds and Visibility OK 1015 No Significant change LOWI 081450Z 02004KT CAVOK 21/M03 Q1015 NOSIG
VFR 21°C / -1°C variable 4kt >10km - Clouds and Visibility OK 1015 No Significant change LOWI 081420Z VRB04KT CAVOK 21/M01 Q1015 NOSIG
VFR 20°C / -3°C variable 3kt >10km - Clouds and Visibility OK 1015 No Significant change LOWI 081350Z VRB03KT CAVOK 20/M03 Q1015 NOSIG
VFR 20°C / -2°C variable 2kt >10km - Clouds and Visibility OK 1016 No Significant change LOWI 081320Z VRB02KT CAVOK 20/M02 Q1016 NOSIG
VFR 20°C / -2°C variable 1kt >10km - Clouds and Visibility OK 1016 No Significant change LOWI 081250Z VRB01KT CAVOK 20/M02 Q1016 NOSIG
VFR 19°C / -1°C variable 2kt >10km - Clouds and Visibility OK 1017 No Significant change LOWI 081220Z VRB02KT CAVOK 19/M01 Q1017 NOSIG
VFR 17°C / -2°C variable 3kt >10km - Clouds and Visibility OK 1017 No Significant change LOWI 081150Z VRB03KT CAVOK 17/M02 Q1017 NOSIG
VFR 17°C / 0°C variable 2kt >10km - Clouds and Visibility OK 1018 No Significant change LOWI 081120Z VRB02KT CAVOK 17/M00 Q1018 NOSIG
VFR 15°C / 0°C variable 3kt >10km - Clouds and Visibility OK 1018 No Significant change LOWI 081050Z VRB03KT CAVOK 15/00 Q1018 NOSIG
VFR 14°C / 0°C variable 3kt >10km - Clouds and Visibility OK 1019 No Significant change LOWI 081020Z VRB03KT CAVOK 14/M00 Q1019 NOSIG
VFR 13°C / 1°C variable 3kt >10km - Clouds and Visibility OK 1019 No Significant change LOWI 080950Z VRB03KT CAVOK 13/01 Q1019 NOSIG
VFR 12°C / -1°C variable 2kt >10km - Clouds and Visibility OK 1020 No Significant change LOWI 080920Z VRB02KT CAVOK 12/M01 Q1020 NOSIG
VFR 11°C / 0°C variable 3kt >10km - Clouds and Visibility OK 1020 No Significant change LOWI 080850Z VRB03KT CAVOK 11/M00 Q1020 NOSIG

VFR

15°C / 3°C

[Więcej]
Wiatr 80º variable 050º to 120º 5kt
Widzialność >10km
Pogoda -
Chmury Few Clouds 9000ft
Ciśn. atm. 1016
Change -
Raw LOWI 082020Z AUTO 08005KT 050V120 9999 FEW090 SCT100 15/03 Q1016

VFR

17°C / 2°C

[Więcej]
Wiatr 90º variable 060º to 120º 6kt
Widzialność >10km
Pogoda -
Chmury Overcast 9000ft
Ciśn. atm. 1016
Change -
Raw LOWI 081950Z AUTO 09006KT 060V120 9999 OVC090 17/02 Q1016

VFR

17°C / 2°C

[Więcej]
Wiatr 80º variable 050º to 120º 6kt
Widzialność >10km
Pogoda -
Chmury Few Clouds 9000ft
Ciśn. atm. 1016
Change -
Raw LOWI 081920Z AUTO 08006KT 050V120 9999 FEW090 OVC100 17/02 Q1016

VFR

18°C / 1°C

[Więcej]
Wiatr 80º 8kt
Widzialność >10km
Pogoda -
Chmury Broken Clouds 10000ft
Ciśn. atm. 1016
Change No Significant change
Raw LOWI 081850Z 08008KT 9999 BKN100 18/01 Q1016 NOSIG

VFR

18°C / 2°C

[Więcej]
Wiatr 60º variable 040º to 100º 7kt
Widzialność >10km
Pogoda -
Chmury Broken Clouds 10000ft
Ciśn. atm. 1015
Change No Significant change
Raw LOWI 081820Z 06007KT 040V100 9999 BKN100 18/02 Q1015 NOSIG

VFR

19°C / 0°C

[Więcej]
Wiatr 60º 10kt
Widzialność >10km
Pogoda -
Chmury Broken Clouds 11000ft
Ciśn. atm. 1015
Change No Significant change
Raw LOWI 081750Z 06010KT 9999 BKN110 19/M00 Q1015 NOSIG

VFR

20°C / -1°C

[Więcej]
Wiatr 130º variable 090º to 170º 9kt
Widzialność >10km
Pogoda -
Chmury Broken Clouds 11000ft
Ciśn. atm. 1015
Change No Significant change
Raw LOWI 081720Z 13009KT 090V170 9999 BKN110 20/M01 Q1015 NOSIG

VFR

20°C / -2°C

[Więcej]
Wiatr 150º variable 110º to 190º 7kt
Widzialność >10km
Pogoda -
Chmury Broken Clouds 11000ft
Ciśn. atm. 1014
Change No Significant change
Raw LOWI 081650Z 15007KT 110V190 9999 BKN110 20/M02 Q1014 NOSIG

VFR

21°C / -1°C

[Więcej]
Wiatr 150º variable 120º to 190º 5kt
Widzialność >10km
Pogoda -
Chmury Scattered Clouds 12000ft
Ciśn. atm. 1014
Change No Significant change
Raw LOWI 081620Z 15005KT 120V190 9999 SCT120 21/M01 Q1014 NOSIG

VFR

22°C / -2°C

[Więcej]
Wiatr variable 2kt
Widzialność >10km
Pogoda -
Chmury Clouds and Visibility OK
Ciśn. atm. 1014
Change No Significant change
Raw LOWI 081550Z VRB02KT CAVOK 22/M02 Q1014 NOSIG

VFR

22°C / 0°C

[Więcej]
Wiatr variable 4kt
Widzialność >10km
Pogoda -
Chmury Clouds and Visibility OK
Ciśn. atm. 1014
Change No Significant change
Raw LOWI 081520Z VRB04KT CAVOK 22/00 Q1014 NOSIG

VFR

21°C / -3°C

[Więcej]
Wiatr 20º 4kt
Widzialność >10km
Pogoda -
Chmury Clouds and Visibility OK
Ciśn. atm. 1015
Change No Significant change
Raw LOWI 081450Z 02004KT CAVOK 21/M03 Q1015 NOSIG

VFR

21°C / -1°C

[Więcej]
Wiatr variable 4kt
Widzialność >10km
Pogoda -
Chmury Clouds and Visibility OK
Ciśn. atm. 1015
Change No Significant change
Raw LOWI 081420Z VRB04KT CAVOK 21/M01 Q1015 NOSIG

VFR

20°C / -3°C

[Więcej]
Wiatr variable 3kt
Widzialność >10km
Pogoda -
Chmury Clouds and Visibility OK
Ciśn. atm. 1015
Change No Significant change
Raw LOWI 081350Z VRB03KT CAVOK 20/M03 Q1015 NOSIG

VFR

20°C / -2°C

[Więcej]
Wiatr variable 2kt
Widzialność >10km
Pogoda -
Chmury Clouds and Visibility OK
Ciśn. atm. 1016
Change No Significant change
Raw LOWI 081320Z VRB02KT CAVOK 20/M02 Q1016 NOSIG

VFR

20°C / -2°C

[Więcej]
Wiatr variable 1kt
Widzialność >10km
Pogoda -
Chmury Clouds and Visibility OK
Ciśn. atm. 1016
Change No Significant change
Raw LOWI 081250Z VRB01KT CAVOK 20/M02 Q1016 NOSIG

VFR

19°C / -1°C

[Więcej]
Wiatr variable 2kt
Widzialność >10km
Pogoda -
Chmury Clouds and Visibility OK
Ciśn. atm. 1017
Change No Significant change
Raw LOWI 081220Z VRB02KT CAVOK 19/M01 Q1017 NOSIG

VFR

17°C / -2°C

[Więcej]
Wiatr variable 3kt
Widzialność >10km
Pogoda -
Chmury Clouds and Visibility OK
Ciśn. atm. 1017
Change No Significant change
Raw LOWI 081150Z VRB03KT CAVOK 17/M02 Q1017 NOSIG

VFR

17°C / 0°C

[Więcej]
Wiatr variable 2kt
Widzialność >10km
Pogoda -
Chmury Clouds and Visibility OK
Ciśn. atm. 1018
Change No Significant change
Raw LOWI 081120Z VRB02KT CAVOK 17/M00 Q1018 NOSIG

VFR

15°C / 0°C

[Więcej]
Wiatr variable 3kt
Widzialność >10km
Pogoda -
Chmury Clouds and Visibility OK
Ciśn. atm. 1018
Change No Significant change
Raw LOWI 081050Z VRB03KT CAVOK 15/00 Q1018 NOSIG

VFR

14°C / 0°C

[Więcej]
Wiatr variable 3kt
Widzialność >10km
Pogoda -
Chmury Clouds and Visibility OK
Ciśn. atm. 1019
Change No Significant change
Raw LOWI 081020Z VRB03KT CAVOK 14/M00 Q1019 NOSIG

VFR

13°C / 1°C

[Więcej]
Wiatr variable 3kt
Widzialność >10km
Pogoda -
Chmury Clouds and Visibility OK
Ciśn. atm. 1019
Change No Significant change
Raw LOWI 080950Z VRB03KT CAVOK 13/01 Q1019 NOSIG

VFR

12°C / -1°C

[Więcej]
Wiatr variable 2kt
Widzialność >10km
Pogoda -
Chmury Clouds and Visibility OK
Ciśn. atm. 1020
Change No Significant change
Raw LOWI 080920Z VRB02KT CAVOK 12/M01 Q1020 NOSIG

VFR

11°C / 0°C

[Więcej]
Wiatr variable 3kt
Widzialność >10km
Pogoda -
Chmury Clouds and Visibility OK
Ciśn. atm. 1020
Change No Significant change
Raw LOWI 080850Z VRB03KT CAVOK 11/M00 Q1020 NOSIG

TAF for Innsbruck (LOWI)

From till


Maximum Temperature 26ºC on . Minimum Temperature 6ºC on .
From till Wind variable 3kt. Visibility 10km or more. Nil Significant Cloud.
Becoming from till Wind 270º 8kt. Visibility 10km or more. Nil Significant Cloud.
Becoming from till Wind 120º 12kt. Gust 25kt. Visibility 10km or more. Nil Significant Cloud.
Temporarly from till Wind 130º 22kt. Gust 35kt.

Raw: TAF AMD LOWI 081903Z 0819/0918 VRB03KT CAVOK TX26/0915Z TN06/0904Z BECMG 0903/0905 27008KT BECMG 0908/0910 12012G25KT TEMPO 0909/0918 13022G35KT

Current satellite and rain images for Innsbruck, Austria

  • Opady:
  • <1 mm
  • 1-2 mm
  • 2-5 mm
  • >5 mm

Wskaźnik lokalizacji znajduje się na Innsbruck. [Więcej]

The real-time satellite image combines visible light during daytime with infrared radiation during nighttime. At night, the image is not dark as infrared radiation can detect temperature differences. Unfortunately, low clouds and fog are difficult to distinguish from ground temperatures and thus can be almost invisible during the night. Meteosat satellite images for Europe are updated in real-time every 5 minutes. GOES-16/GOES-17 (North & South America) and Himawari (Asia) images update every 10 minutes.

Opady zostały oszacowane na podstawie danych radarowych i satelitarnych. Szacunkowe dane opadów nocnych są mniej dokładne niż dane w ciągu dnia. Pomarańczowe krzyżyki oznaczają miejsca, gdzie zaobserwowano pioruny (nad Europa).

Prawa autorskie 2021 EUMETSAT / meteoblue. Dane dot. błyskawic dostarczone przez nowcast.

Radar dla Innsbruck

Wskaźnik lokalizacji jest umieszczony na Innsbruck. Animacja przedstawia radar opadów dla ostatniej godziny, jak również 2h prognozę pogody. Mżawka i lekkie opady mogą być niewidoczne na radarze. Intensywność opadów jest oznaczona kolorami od jasnoniebieskiego do ciemnofioletowego.
Copyright 2021 Deutscher Wetterdienst / meteoblue.

Obecny stan pogody i ostrzeżenia

EUMETNET – MeteoAlarm

pictomap

Źródło: ZAMG

Możliwe są opóźnienia pomiędzy tą stroną a stroną www.meteoalarm.eu. W celu uzyskania bardziej aktualnych informacji na temat alertów pogodowych publikowanych przez państwowe służby meteorologiczne, prosimy wejść na stronę www.meteoalarm.eu.